METAR AND TAF INFORMATION
METAR FOR EGKK
ADDS - METARS form results

(0104 UTC 20 April 2019)
Data provider http://aviationweather.gov/metar/data/
 
METAR text: EGKK 200050Z VRB01KT CAVOK 09/05 Q1030
Conditions at: EGKK (LONDON/GATWICK A, GB) observed 0050 UTC 20 April 2019
Temperature: 9.0°C (48°F)
Dewpoint: 5.0°C (41°F) [RH = 76%]
Pressure (altimeter): 30.41 inches Hg (1030.0 mb)
Winds: variable direction winds at 1 MPH (1 knots; 0.5 m/s)
Visibility: 6 or more miles (10+ km)
Ceiling: ceiling and visibility are OK
Clouds: unknown
Weather: no significant weather observed at this time

METAR text: EGKK 200020Z VRB01KT CAVOK 09/05 Q1030
Conditions at: EGKK (LONDON/GATWICK A, GB) observed 0020 UTC 20 April 2019
Temperature: 9.0°C (48°F)
Dewpoint: 5.0°C (41°F) [RH = 76%]
Pressure (altimeter): 30.41 inches Hg (1030.0 mb)
Winds: variable direction winds at 1 MPH (1 knots; 0.5 m/s)
Visibility: 6 or more miles (10+ km)
Ceiling: ceiling and visibility are OK
Clouds: unknown
Weather: no significant weather observed at this time

Forecast for: EGKK (LONDON/GATWICK A, GB)
Text: TAF EGKK 192302Z 2000/2106 04005KT CAVOK
Forecast period: 0000 UTC 20 April 2019 to 0600 UTC 21 April 2019
Forecast type: FROM: standard forecast or significant change
Winds: from the NE (40 degrees) at 6 MPH (5 knots; 2.6 m/s)
Visibility: 6 or more miles 10+ km)
Ceiling: unknown
Clouds: missing
Weather: NSW  (no significant weather)
Text: PROB40 2003/2008 8000
Forecast period: 0300 to 0800 UTC 20 April 2019
Forecast type: PROBABLE: 40 percent likelihood of the following during this time
Visibility: 5 miles (8 km)
Ceiling: unknown
Clouds: missing
Weather: no significant weather forecast for this period
Text: PROB40 2021/2106 7000
Forecast period: 2100 UTC 20 April 2019 to 0600 UTC 21 April 2019
Forecast type: PROBABLE: 40 percent likelihood of the following during this time
Visibility: 4 miles (7 km)
Ceiling: unknown
Clouds: missing
Weather: no significant weather forecast for this period

 AIRPORT MAP

 RUNWAY INFORMATION
Runway 08L Runway length 8415 ft Runway width 148 ft
Runway elevation 195 ft Runway displaced threshold 1053 ft Runway heading 78
Runway 26R Runway length 8415 ft Runway width 148 ft
Runway elevation 195 ft Runway displaced threshold 1366 ft Runway heading 258
Runway 08R Runway length 10364 ft Runway width 148 ft
Runway elevation 196 ft Runway displaced threshold 1288 ft Runway heading 78
Runway 26L Runway length 10364 ft Runway width 148 ft
Runway elevation 196 ft Runway displaced threshold 878 ft Runway heading 258

 AIRPORT FREQUENCIES
Type APP Name APP Frequency 126.825 MHZ
Type ATIS Name ATIS Frequency 136.525 MHZ
Type CLD Name CLNC DEL Frequency 121.95 MHZ
Type GND Name GND Frequency 121.8 MHZ
Type TWR Name TWR Frequency 124.225 MHZ

 AIRPORT NEAR NAVIGATION AIDS
Type NDB Name Gatwick Frequency 338 KHZ
Type NDB Name Gatwick Frequency 365 KHZ



Powered by Virtual Airlines Manager [v2.6.2]